createdAt,value
2019-04-14T00:00:31.501Z,86.67
2019-04-14T00:01:32.542Z,86.57
2019-04-14T00:02:31.526Z,86.88
2019-04-14T00:03:32.228Z,86.57
2019-04-14T00:04:31.315Z,86.57
2019-04-14T00:05:33.728Z,87.08
2019-04-14T00:06:31.249Z,86.98
2019-04-14T00:07:31.905Z,87.08
2019-04-14T00:08:31.200Z,86.67
2019-04-14T00:09:31.597Z,87.08
2019-04-14T00:10:31.208Z,87.29
2019-04-14T00:11:32.230Z,87.08
2019-04-14T00:12:31.659Z,86.98
2019-04-14T00:13:31.139Z,87.29
2019-04-14T00:14:31.507Z,86.98
2019-04-14T00:15:38.619Z,86.67
2019-04-14T00:16:32.109Z,86.46
2019-04-14T00:17:31.132Z,86.67
2019-04-14T00:18:31.572Z,86.35
2019-04-14T00:19:31.084Z,86.77
2019-04-14T00:20:31.509Z,86.98
2019-04-14T00:21:31.057Z,87.08
2019-04-14T00:22:32.141Z,87.08
2019-04-14T00:23:31.058Z,86.88
2019-04-14T00:24:31.332Z,86.46
2019-04-14T00:25:31.017Z,86.77
2019-04-14T00:26:31.513Z,86.57
2019-04-14T00:27:30.997Z,86.35
2019-04-14T00:28:31.447Z,86.46
2019-04-14T00:29:30.967Z,86.35
2019-04-14T00:30:31.629Z,86.46
2019-04-14T00:31:30.979Z,86.88
2019-04-14T00:32:31.271Z,86.57
2019-04-14T00:33:30.957Z,86.77
2019-04-14T00:34:30.929Z,86.91
2019-04-14T00:35:31.966Z,87.43
2019-04-14T00:36:30.898Z,87.96
2019-04-14T00:37:31.591Z,87.85
2019-04-14T00:38:30.920Z,87.71
2019-04-14T00:39:31.549Z,87.65
2019-04-14T00:40:31.561Z,87.85
2019-04-14T00:41:41.335Z,87.75
2019-04-14T00:42:32.027Z,87.43
2019-04-14T00:43:30.996Z,87.33
2019-04-14T00:44:31.838Z,87.23
2019-04-14T00:45:40.265Z,87.96
2019-04-14T00:46:33.865Z,88.06
2019-04-14T00:47:31.193Z,88.20
2019-04-14T00:48:31.926Z,88.20
2019-04-14T00:49:31.125Z,87.99
2019-04-14T00:50:31.879Z,88.52
2019-04-14T00:51:30.963Z,88.31
2019-04-14T00:52:31.883Z,88.73
2019-04-14T00:53:31.696Z,88.83
2019-04-14T00:54:30.696Z,88.93
2019-04-14T00:55:31.475Z,88.62
2019-04-14T00:56:30.695Z,88.73
2019-04-14T00:57:31.152Z,88.73
2019-04-14T00:58:30.665Z,88.52
2019-04-14T00:59:31.199Z,88.52
2019-04-14T01:00:31.905Z,88.31
2019-04-14T01:01:30.890Z,88.42
2019-04-14T01:02:31.781Z,88.52
2019-04-14T01:03:30.933Z,88.62
2019-04-14T01:04:31.621Z,88.73
2019-04-14T01:05:32.948Z,88.31
2019-04-14T01:06:31.463Z,88.20
2019-04-14T01:07:30.616Z,88.62
2019-04-14T01:08:31.421Z,88.52
2019-04-14T01:09:30.575Z,88.56
2019-04-14T01:10:30.548Z,88.87
2019-04-14T01:11:31.354Z,88.87
2019-04-14T01:12:30.515Z,88.87
2019-04-14T01:13:31.111Z,89.18
2019-04-14T01:14:30.503Z,89.50
2019-04-14T01:15:32.400Z,89.29
2019-04-14T01:16:31.927Z,89.18
2019-04-14T01:17:30.958Z,89.39
2019-04-14T01:18:30.445Z,89.29
2019-04-14T01:19:30.971Z,89.39
2019-04-14T01:20:31.739Z,89.39
2019-04-14T01:21:30.748Z,89.29
2019-04-14T01:22:31.387Z,89.08
2019-04-14T01:23:30.533Z,89.18
2019-04-14T01:24:31.460Z,89.29
2019-04-14T01:25:30.363Z,89.39
2019-04-14T01:26:31.063Z,89.29
2019-04-14T01:27:30.356Z,89.50
2019-04-14T01:28:30.813Z,89.39
2019-04-14T01:29:30.342Z,89.60
2019-04-14T01:30:30.628Z,89.50
2019-04-14T01:31:30.303Z,89.60
2019-04-14T01:32:30.539Z,89.70
2019-04-14T01:33:31.494Z,89.70
2019-04-14T01:34:30.274Z,89.60
2019-04-14T01:35:31.334Z,89.70
2019-04-14T01:36:30.243Z,89.60
2019-04-14T01:37:31.167Z,89.29
2019-04-14T01:38:30.232Z,89.18
2019-04-14T01:39:30.772Z,88.98
2019-04-14T01:40:31.337Z,89.29
2019-04-14T01:41:30.340Z,89.18
2019-04-14T01:42:31.065Z,89.29
2019-04-14T01:43:30.172Z,89.50
2019-04-14T01:44:30.715Z,89.29
2019-04-14T01:45:30.151Z,89.29
2019-04-14T01:46:32.768Z,89.60
2019-04-14T01:47:31.307Z,89.43
2019-04-14T01:48:30.155Z,89.54
2019-04-14T01:49:31.064Z,89.64
2019-04-14T01:50:30.114Z,89.75
2019-04-14T01:51:30.965Z,89.75
2019-04-14T01:52:30.082Z,89.95
2019-04-14T01:53:30.069Z,89.85
2019-04-14T01:54:30.060Z,89.85
2019-04-14T01:55:30.901Z,89.75
2019-04-14T01:56:30.044Z,90.06
2019-04-14T01:57:30.690Z,90.06
2019-04-14T01:58:30.010Z,89.85
2019-04-14T01:59:30.534Z,89.75
2019-04-14T02:00:30.004Z,89.64
2019-04-14T02:01:30.318Z,89.64
2019-04-14T02:02:29.970Z,89.89
2019-04-14T02:03:30.275Z,89.78
2019-04-14T02:04:31.232Z,89.89
2019-04-14T02:05:30.041Z,90.10
2019-04-14T02:06:31.011Z,90.10
2019-04-14T02:07:29.932Z,90.20
2019-04-14T02:08:30.780Z,90.10
2019-04-14T02:09:29.909Z,90.10
2019-04-14T02:10:30.480Z,90.14
2019-04-14T02:11:31.258Z,90.14
2019-04-14T02:12:30.207Z,90.14
2019-04-14T02:13:31.020Z,90.35
2019-04-14T02:14:30.121Z,90.45
2019-04-14T02:15:30.892Z,90.66
2019-04-14T02:16:37.944Z,90.66
2019-04-14T02:17:30.820Z,90.87
2019-04-14T02:18:29.822Z,91.08
2019-04-14T02:19:30.623Z,90.97
2019-04-14T02:20:29.779Z,90.97
2019-04-14T02:21:30.294Z,91.08
2019-04-14T02:22:29.751Z,91.29
2019-04-14T02:23:30.197Z,91.60
2019-04-14T02:24:30.862Z,91.60
2019-04-14T02:25:29.728Z,91.50
2019-04-14T02:26:30.810Z,91.29
2019-04-14T02:27:29.807Z,91.18
2019-04-14T02:28:30.935Z,90.97
2019-04-14T02:29:29.793Z,90.77
2019-04-14T02:30:36.218Z,90.56
2019-04-14T02:31:57.052Z,90.45
2019-04-14T02:33:00.828Z,90.45
2019-04-14T02:34:02.215Z,90.56
2019-04-14T02:35:06.237Z,90.45
2019-04-14T02:37:05.353Z,90.35
2019-04-14T02:38:08.852Z,90.35
2019-04-14T02:38:55.317Z,90.45
2019-04-14T02:40:01.311Z,90.56
2019-04-14T02:42:54.164Z,90.45
2019-04-14T02:44:14.007Z,90.56
2019-04-14T02:45:57.487Z,90.56
2019-04-14T02:46:59.999Z,90.56
2019-04-14T02:48:05.348Z,90.56
2019-04-14T02:48:55.502Z,90.56
2019-04-14T02:50:02.741Z,90.45
2019-04-14T02:50:59.531Z,90.56
2019-04-14T02:51:56.360Z,90.35
2019-04-14T02:53:00.945Z,90.35
2019-04-14T02:53:57.634Z,90.14
2019-04-14T02:55:57.580Z,89.72
2019-04-14T02:57:52.783Z,89.26
2019-04-14T02:59:59.479Z,89.26
2019-04-14T03:00:58.468Z,89.16
2019-04-14T03:02:18.929Z,89.26
2019-04-14T03:02:52.874Z,89.58
2019-04-14T03:03:59.992Z,89.78
2019-04-14T03:04:57.152Z,89.62
2019-04-14T03:06:01.926Z,89.51
2019-04-14T03:06:55.077Z,89.51
2019-04-14T03:09:01.194Z,89.62
2019-04-14T03:10:14.238Z,89.83
2019-04-14T03:10:53.965Z,89.97
2019-04-14T03:11:51.798Z,90.18
2019-04-14T03:13:01.945Z,90.28
2019-04-14T03:14:01.189Z,90.08
2019-04-14T03:14:58.879Z,90.08
2019-04-14T03:15:59.039Z,90.70
2019-04-14T03:17:06.146Z,90.85
2019-04-14T03:18:24.039Z,91.22
2019-04-14T03:18:50.606Z,91.33
2019-04-14T03:20:09.400Z,91.22
2019-04-14T03:20:59.174Z,91.12
2019-04-14T03:22:09.715Z,91.06
2019-04-14T03:23:56.391Z,91.16
2019-04-14T03:24:42.061Z,91.16
2019-04-14T03:25:49.239Z,90.75
2019-04-14T03:27:00.307Z,91.16
2019-04-14T03:28:04.272Z,91.06
2019-04-14T03:28:51.118Z,91.16
2019-04-14T03:29:59.875Z,91.47
2019-04-14T03:31:12.003Z,91.27
2019-04-14T03:33:18.532Z,91.06
2019-04-14T03:34:21.359Z,91.16
2019-04-14T03:35:03.547Z,91.16
2019-04-14T03:36:40.326Z,91.10
2019-04-14T03:38:58.927Z,91.69
2019-04-14T03:39:51.244Z,91.69
2019-04-14T03:40:58.544Z,91.58
2019-04-14T03:41:52.822Z,91.47
2019-04-14T03:43:05.069Z,91.47
2019-04-14T03:43:50.404Z,91.58
2019-04-14T03:45:18.508Z,91.37
2019-04-14T03:47:05.524Z,91.20
2019-04-14T03:48:20.858Z,91.20
2019-04-14T03:48:58.678Z,91.20
2019-04-14T03:49:54.703Z,91.41
2019-04-14T03:52:59.318Z,91.52
2019-04-14T03:53:53.530Z,91.31
2019-04-14T03:54:44.338Z,91.31
2019-04-14T03:55:39.433Z,91.41
2019-04-14T03:56:29.740Z,91.62
2019-04-14T03:57:30.066Z,91.62
2019-04-14T03:58:29.247Z,91.66
2019-04-14T03:59:28.709Z,91.56
2019-04-14T04:00:29.183Z,91.56
2019-04-14T04:01:28.671Z,91.66
2019-04-14T04:02:29.414Z,91.66
2019-04-14T04:03:28.672Z,91.56
2019-04-14T04:04:29.446Z,91.66
2019-04-14T04:05:28.639Z,91.87
2019-04-14T04:06:29.259Z,91.87
2019-04-14T04:07:28.610Z,91.87
2019-04-14T04:08:29.143Z,91.87
2019-04-14T04:09:28.602Z,91.77
2019-04-14T04:10:29.232Z,91.77
2019-04-14T04:11:28.569Z,91.56
2019-04-14T04:12:29.250Z,91.66
2019-04-14T04:13:28.569Z,91.56
2019-04-14T04:14:29.188Z,91.56
2019-04-14T04:15:28.528Z,91.77
2019-04-14T04:16:29.113Z,91.77
2019-04-14T04:17:29.687Z,91.87
2019-04-14T04:18:28.763Z,91.66
2019-04-14T04:19:29.430Z,91.81
2019-04-14T04:20:28.621Z,92.23
2019-04-14T04:21:29.139Z,92.13
2019-04-14T04:22:28.448Z,92.23
2019-04-14T04:23:29.177Z,92.13
2019-04-14T04:24:30.604Z,92.13
2019-04-14T04:25:28.989Z,92.23
2019-04-14T04:26:28.431Z,92.44
2019-04-14T04:27:28.773Z,92.23
2019-04-14T04:28:28.401Z,92.02
2019-04-14T04:29:28.816Z,91.91
2019-04-14T04:30:28.375Z,91.81
2019-04-14T04:31:28.587Z,91.71
2019-04-14T04:32:28.348Z,91.71
2019-04-14T04:33:28.478Z,91.71
2019-04-14T04:34:29.411Z,91.81
2019-04-14T04:35:28.340Z,92.02
2019-04-14T04:36:29.154Z,91.96
2019-04-14T04:37:28.297Z,91.96
2019-04-14T04:38:29.101Z,92.27
2019-04-14T04:39:28.267Z,92.27
2019-04-14T04:40:29.035Z,92.16
2019-04-14T04:41:28.246Z,92.06
2019-04-14T04:42:28.696Z,91.85
2019-04-14T04:43:28.227Z,91.85
2019-04-14T04:44:29.098Z,91.96
2019-04-14T04:45:28.232Z,91.75
2019-04-14T04:46:28.766Z,92.06
2019-04-14T04:47:29.424Z,92.06
2019-04-14T04:48:28.481Z,92.06
2019-04-14T04:49:29.709Z,91.85
2019-04-14T04:50:28.287Z,91.75
2019-04-14T04:51:28.969Z,91.85
2019-04-14T04:52:28.169Z,92.10
2019-04-14T04:53:28.814Z,92.10
2019-04-14T04:54:28.116Z,92.10
2019-04-14T04:55:28.608Z,92.00
2019-04-14T04:56:28.105Z,92.10
2019-04-14T04:57:28.543Z,92.10
2019-04-14T04:58:28.376Z,92.21
2019-04-14T04:59:28.056Z,92.31
2019-04-14T05:00:28.778Z,92.31
2019-04-14T05:01:28.064Z,92.00
2019-04-14T05:02:28.779Z,92.10
2019-04-14T05:03:28.004Z,92.21
2019-04-14T05:04:28.646Z,92.31
2019-04-14T05:05:28.007Z,92.31
2019-04-14T05:06:28.792Z,92.16
2019-04-14T05:07:27.984Z,92.06
2019-04-14T05:08:28.415Z,91.96
2019-04-14T05:09:27.954Z,91.85
2019-04-14T05:10:28.556Z,92.06
2019-04-14T05:11:27.928Z,92.16
2019-04-14T05:12:28.374Z,92.27
2019-04-14T05:13:29.126Z,92.27
2019-04-14T05:14:28.342Z,92.27
2019-04-14T05:15:28.877Z,92.48
2019-04-14T05:16:28.133Z,92.69
2019-04-14T05:17:27.863Z,92.69
2019-04-14T05:18:28.976Z,92.38
2019-04-14T05:19:32.947Z,92.16
2019-04-14T05:20:29.170Z,92.06
2019-04-14T05:21:27.814Z,92.16
2019-04-14T05:22:28.845Z,91.91
2019-04-14T05:23:27.895Z,92.02
2019-04-14T05:24:28.978Z,91.77
2019-04-14T05:25:27.782Z,91.25
2019-04-14T05:26:28.674Z,90.93
2019-04-14T05:27:27.765Z,90.83
2019-04-14T05:28:28.799Z,90.83
2019-04-14T05:29:27.735Z,90.72
2019-04-14T05:30:28.587Z,90.83
2019-04-14T05:31:29.066Z,90.93
2019-04-14T05:32:28.406Z,90.83
2019-04-14T05:33:27.690Z,90.72
2019-04-14T05:34:28.347Z,90.47
2019-04-14T05:35:27.695Z,90.52
2019-04-14T05:36:28.137Z,90.47
2019-04-14T05:37:27.671Z,90.41
2019-04-14T05:38:29.440Z,90.62
2019-04-14T05:39:28.550Z,90.62
2019-04-14T05:40:27.805Z,90.58
2019-04-14T05:41:28.666Z,90.47
2019-04-14T05:42:28.664Z,90.47
2019-04-14T05:43:37.028Z,90.58
2019-04-14T05:44:29.640Z,90.58
2019-04-14T05:45:28.473Z,90.37
2019-04-14T05:46:27.549Z,90.47
2019-04-14T05:47:28.344Z,90.26
2019-04-14T05:48:27.520Z,90.16
2019-04-14T05:49:35.262Z,90.16
2019-04-14T05:50:29.258Z,90.22
2019-04-14T05:51:28.408Z,90.12
2019-04-14T05:52:27.492Z,90.01
2019-04-14T05:53:28.359Z,89.91
2019-04-14T05:54:27.520Z,89.81
2019-04-14T05:55:28.431Z,89.76
2019-04-14T05:56:27.511Z,89.66
2019-04-14T05:57:28.345Z,89.76
2019-04-14T05:58:27.569Z,89.45
2019-04-14T05:59:28.512Z,89.14
2019-04-14T06:00:27.792Z,88.99
2019-04-14T06:01:27.389Z,88.47
2019-04-14T06:02:28.874Z,88.26
2019-04-14T06:03:27.767Z,87.95
2019-04-14T06:04:28.517Z,87.63
2019-04-14T06:05:27.509Z,87.63
2019-04-14T06:06:27.356Z,87.74
2019-04-14T06:07:27.331Z,87.95
2019-04-14T06:08:27.329Z,87.95
2019-04-14T06:09:27.310Z,87.70
2019-04-14T06:10:27.305Z,86.97
2019-04-14T06:11:27.297Z,87.28
2019-04-14T06:12:27.276Z,87.49
2019-04-14T06:13:27.257Z,87.39
2019-04-14T06:14:27.247Z,87.39
2019-04-14T06:15:27.263Z,86.93
2019-04-14T06:16:27.246Z,86.93
2019-04-14T06:17:27.208Z,86.61
2019-04-14T06:18:27.206Z,86.93
2019-04-14T06:19:36.522Z,86.83
2019-04-14T06:20:28.189Z,86.20
2019-04-14T06:21:27.165Z,86.30
2019-04-14T06:22:27.166Z,85.53
2019-04-14T06:23:27.174Z,85.74
2019-04-14T06:24:27.168Z,85.53
2019-04-14T06:25:27.130Z,84.70
2019-04-14T06:26:27.116Z,85.53
2019-04-14T06:27:27.105Z,86.27
2019-04-14T06:28:27.094Z,85.85
2019-04-14T06:29:27.106Z,84.28
2019-04-14T06:30:27.090Z,84.04
2019-04-14T06:31:27.055Z,84.25
2019-04-14T06:32:27.059Z,83.83
2019-04-14T06:33:27.054Z,84.04
2019-04-14T06:34:27.025Z,84.14
2019-04-14T06:35:27.016Z,83.83
2019-04-14T06:36:27.006Z,84.35
2019-04-14T06:37:27.008Z,84.04
2019-04-14T06:38:27.004Z,83.20
2019-04-14T06:39:27.000Z,83.00
2019-04-14T06:40:26.965Z,82.79
2019-04-14T06:41:26.953Z,82.79
2019-04-14T06:42:26.943Z,82.86
2019-04-14T06:43:26.943Z,82.23
2019-04-14T06:44:26.925Z,82.44
2019-04-14T06:45:26.905Z,82.34
2019-04-14T06:46:26.904Z,81.81
2019-04-14T06:47:26.893Z,82.13
2019-04-14T06:48:26.876Z,82.23
2019-04-14T06:49:26.882Z,82.34
2019-04-14T06:50:26.853Z,82.40
2019-04-14T06:51:26.842Z,81.19
2019-04-14T06:52:26.854Z,81.36
2019-04-14T06:53:26.837Z,81.15
2019-04-14T06:54:26.821Z,81.36
2019-04-14T06:55:26.835Z,80.94
2019-04-14T06:56:26.792Z,80.32
2019-04-14T06:57:26.771Z,80.94
2019-04-14T06:58:26.772Z,80.80
2019-04-14T06:59:26.754Z,80.60
2019-04-14T07:00:26.741Z,80.18
2019-04-14T07:01:26.745Z,79.45
2019-04-14T07:02:26.767Z,79.14
2019-04-14T07:03:26.715Z,79.66
2019-04-14T07:04:26.710Z,80.08
2019-04-14T07:05:26.702Z,79.66
2019-04-14T07:06:26.690Z,79.03
2019-04-14T07:07:26.694Z,79.24
2019-04-14T07:08:26.660Z,79.76
2019-04-14T07:09:26.657Z,79.62
2019-04-14T07:10:26.649Z,79.94
2019-04-14T07:11:26.620Z,79.41
2019-04-14T07:12:26.612Z,79.31
2019-04-14T07:13:26.603Z,78.79
2019-04-14T07:14:26.601Z,78.96
2019-04-14T07:15:26.599Z,78.65
2019-04-14T07:16:26.589Z,78.13
2019-04-14T07:17:26.560Z,78.55
2019-04-14T07:18:26.549Z,78.13
2019-04-14T07:19:26.539Z,77.30
2019-04-14T07:20:26.552Z,77.72
2019-04-14T07:21:26.528Z,78.61
2019-04-14T07:22:26.498Z,76.85
2019-04-14T07:23:26.488Z,77.06
2019-04-14T07:24:26.556Z,76.75
2019-04-14T07:25:26.499Z,76.64
2019-04-14T07:26:26.476Z,75.92
2019-04-14T07:27:26.458Z,76.12
2019-04-14T07:28:26.448Z,77.23
2019-04-14T07:29:26.449Z,75.26
2019-04-14T07:30:26.426Z,76.50
2019-04-14T07:31:26.417Z,76.50
2019-04-14T07:32:26.449Z,75.78
2019-04-14T07:33:26.387Z,76.57
2019-04-14T07:34:26.377Z,76.47
2019-04-14T07:35:26.367Z,75.43
2019-04-14T07:36:26.373Z,74.26
2019-04-14T07:37:26.404Z,73.77
2019-04-14T07:38:26.360Z,74.46
2019-04-14T07:39:26.336Z,75.09
2019-04-14T07:40:26.316Z,73.53
2019-04-14T07:41:26.316Z,73.84
2019-04-14T07:42:26.314Z,73.84
2019-04-14T07:43:26.289Z,73.63
2019-04-14T07:44:26.266Z,72.18
2019-04-14T07:45:26.268Z,72.80
2019-04-14T07:46:26.280Z,73.43
2019-04-14T07:47:26.236Z,73.43
2019-04-14T07:48:26.250Z,72.01
2019-04-14T07:49:26.225Z,71.91
2019-04-14T07:50:26.206Z,72.42
2019-04-14T07:51:26.198Z,73.22
2019-04-14T07:52:26.215Z,72.49
2019-04-14T07:53:26.174Z,72.91
2019-04-14T07:54:26.158Z,71.77
2019-04-14T07:55:26.160Z,72.05
2019-04-14T07:56:26.151Z,71.73
2019-04-14T07:57:26.124Z,72.05
2019-04-14T07:58:26.177Z,71.42
2019-04-14T07:59:26.117Z,71.73
2019-04-14T08:00:26.094Z,72.25
2019-04-14T08:01:26.137Z,71.49
2019-04-14T08:02:26.089Z,70.67
2019-04-14T08:03:26.063Z,71.70
2019-04-14T08:04:26.055Z,71.80
2019-04-14T08:05:26.034Z,71.28
2019-04-14T08:06:26.036Z,69.84
2019-04-14T08:07:26.030Z,70.56
2019-04-14T08:08:26.002Z,71.59
2019-04-14T08:09:26.013Z,70.76
2019-04-14T08:10:26.002Z,71.18
2019-04-14T08:11:26.070Z,70.76
2019-04-14T08:12:25.962Z,71.56
2019-04-14T08:13:25.958Z,71.67
2019-04-14T08:14:25.974Z,69.98
2019-04-14T08:15:25.953Z,69.77
2019-04-14T08:16:25.935Z,69.25
2019-04-14T08:17:25.912Z,69.77
2019-04-14T08:18:25.891Z,69.87
2019-04-14T08:19:25.911Z,68.32
2019-04-14T08:20:27.561Z,68.01
2019-04-14T08:21:25.873Z,68.32
2019-04-14T08:22:25.870Z,68.32
2019-04-14T08:23:25.851Z,68.43
2019-04-14T08:24:25.868Z,68.80
2019-04-14T08:25:25.822Z,68.91
2019-04-14T08:26:25.820Z,68.49
2019-04-14T08:27:25.799Z,66.94
2019-04-14T08:28:25.791Z,65.67
2019-04-14T08:29:25.781Z,66.19
2019-04-14T08:30:25.763Z,66.09
2019-04-14T08:31:25.760Z,65.26
2019-04-14T08:32:25.739Z,65.88
2019-04-14T08:33:25.744Z,66.29
2019-04-14T08:34:25.722Z,67.95
2019-04-14T08:35:25.708Z,67.40
2019-04-14T08:36:25.721Z,66.16
2019-04-14T08:37:25.704Z,64.61
2019-04-14T08:38:25.670Z,64.51
2019-04-14T08:39:25.674Z,64.61
2019-04-14T08:40:25.649Z,65.54
2019-04-14T08:41:25.659Z,65.85
2019-04-14T08:42:25.639Z,65.12
2019-04-14T08:43:25.639Z,64.81
2019-04-14T08:44:25.639Z,64.40
2019-04-14T08:45:25.598Z,64.58
2019-04-14T08:46:25.599Z,64.89
2019-04-14T08:47:25.600Z,65.61
2019-04-14T08:48:25.588Z,65.30
2019-04-14T08:49:25.580Z,64.65
2019-04-14T08:50:25.558Z,63.42
2019-04-14T08:51:25.538Z,63.28
2019-04-14T08:52:25.519Z,63.39
2019-04-14T08:53:25.528Z,62.66
2019-04-14T08:54:25.558Z,62.15
2019-04-14T08:55:25.495Z,61.94
2019-04-14T08:56:25.479Z,61.94
2019-04-14T08:57:25.467Z,61.83
2019-04-14T08:58:25.456Z,62.87
2019-04-14T08:59:25.448Z,61.94
2019-04-14T09:00:25.437Z,59.25
2019-04-14T09:01:25.448Z,59.98
2019-04-14T09:02:25.420Z,61.63
2019-04-14T09:03:25.807Z,62.15
2019-04-14T09:04:25.387Z,62.46
2019-04-14T09:05:25.390Z,62.87
2019-04-14T09:06:25.366Z,61.29
2019-04-14T09:07:25.366Z,60.26
2019-04-14T09:08:25.354Z,61.50
2019-04-14T09:09:25.418Z,61.08
2019-04-14T09:10:25.336Z,58.30
2019-04-14T09:11:25.319Z,59.23
2019-04-14T09:12:25.295Z,59.74
2019-04-14T09:13:25.306Z,60.67
2019-04-14T09:14:25.307Z,60.77
2019-04-14T09:15:25.265Z,61.19
2019-04-14T09:16:25.256Z,61.16
2019-04-14T09:17:25.246Z,60.33
2019-04-14T09:18:25.248Z,60.33
2019-04-14T09:19:25.231Z,59.69
2019-04-14T09:20:25.225Z,58.35
2019-04-14T09:21:25.206Z,58.14
2019-04-14T09:22:25.197Z,58.79
2019-04-14T09:23:25.186Z,60.10
2019-04-14T09:24:25.174Z,59.17
2019-04-14T09:25:25.164Z,58.04
2019-04-14T09:26:25.154Z,58.89
2019-04-14T09:27:25.154Z,59.48
2019-04-14T09:28:25.133Z,58.76
2019-04-14T09:29:25.115Z,57.83
2019-04-14T09:30:25.117Z,57.21
2019-04-14T09:31:25.103Z,57.73
2019-04-14T09:32:25.084Z,55.98
2019-04-14T09:33:25.082Z,57.42
2019-04-14T09:34:25.064Z,58.25
2019-04-14T09:35:25.053Z,57.83
2019-04-14T09:36:25.044Z,57.73
2019-04-14T09:37:25.037Z,57.93
2019-04-14T09:38:25.015Z,57.60
2019-04-14T09:39:25.003Z,55.23
2019-04-14T09:40:25.005Z,55.98
2019-04-14T09:41:24.993Z,56.36
2019-04-14T09:42:24.973Z,56.67
2019-04-14T09:43:24.964Z,55.74
2019-04-14T09:44:24.951Z,56.16
2019-04-14T09:45:24.941Z,55.13
2019-04-14T09:46:24.963Z,55.30
2019-04-14T09:47:24.922Z,54.90
2019-04-14T09:48:24.902Z,55.10
2019-04-14T09:49:24.902Z,55.41
2019-04-14T09:50:24.883Z,55.80
2019-04-14T09:51:24.883Z,55.98
2019-04-14T09:52:24.885Z,56.80
2019-04-14T09:53:24.852Z,56.38
2019-04-14T09:54:24.852Z,55.87
2019-04-14T09:55:24.831Z,55.77
2019-04-14T09:56:24.830Z,55.36
2019-04-14T09:57:24.835Z,55.77
2019-04-14T09:58:24.841Z,53.61
2019-04-14T09:59:24.792Z,54.85
2019-04-14T10:00:24.795Z,54.30
2019-04-14T10:01:24.761Z,52.76
2019-04-14T10:02:24.761Z,53.07
2019-04-14T10:03:24.781Z,53.28
2019-04-14T10:04:24.747Z,53.58
2019-04-14T10:05:24.729Z,53.48
2019-04-14T10:06:24.714Z,53.17
2019-04-14T10:07:24.701Z,52.25
2019-04-14T10:08:24.689Z,51.96
2019-04-14T10:09:24.712Z,53.07
2019-04-14T10:10:24.699Z,53.28
2019-04-14T10:11:24.673Z,53.38
2019-04-14T10:12:24.651Z,53.28
2019-04-14T10:13:24.650Z,53.48
2019-04-14T10:14:24.630Z,52.94
2019-04-14T10:15:24.619Z,52.66
2019-04-14T10:16:24.614Z,53.79
2019-04-14T10:17:24.590Z,54.00
2019-04-14T10:18:24.600Z,51.81
2019-04-14T10:19:24.579Z,51.81
2019-04-14T10:20:24.559Z,51.07
2019-04-14T10:21:24.540Z,51.58
2019-04-14T10:22:33.774Z,51.48
2019-04-14T10:23:25.529Z,52.17
2019-04-14T10:24:24.522Z,51.56
2019-04-14T10:25:24.508Z,51.97
2019-04-14T10:26:24.507Z,51.35
2019-04-14T10:27:24.479Z,51.28
2019-04-14T10:28:24.479Z,51.89
2019-04-14T10:29:24.459Z,52.30
2019-04-14T10:30:24.457Z,51.48
2019-04-14T10:31:24.439Z,51.87
2019-04-14T10:32:24.429Z,50.35
2019-04-14T10:33:24.446Z,50.86
2019-04-14T10:34:24.400Z,51.17
2019-04-14T10:35:24.398Z,50.96
2019-04-14T10:36:24.388Z,50.56
2019-04-14T10:37:24.380Z,50.66
2019-04-14T10:38:24.380Z,50.86
2019-04-14T10:39:24.378Z,51.15
2019-04-14T10:40:24.337Z,50.53
2019-04-14T10:41:24.328Z,51.04
2019-04-14T10:42:24.319Z,51.23
2019-04-14T10:43:24.308Z,50.92
2019-04-14T10:44:24.331Z,51.43
2019-04-14T10:45:24.298Z,51.10
2019-04-14T10:46:24.280Z,50.26
2019-04-14T10:47:24.268Z,50.67
2019-04-14T10:48:24.270Z,49.51
2019-04-14T10:49:24.256Z,49.41
2019-04-14T10:50:30.666Z,49.39
2019-04-14T10:51:30.261Z,48.96
2019-04-14T10:52:25.221Z,48.65
2019-04-14T10:53:24.220Z,48.85
2019-04-14T10:54:24.187Z,48.34
2019-04-14T10:55:24.207Z,49.18
2019-04-14T10:56:24.166Z,49.10
2019-04-14T10:57:24.148Z,48.92
2019-04-14T10:58:24.137Z,49.33
2019-04-14T10:59:24.148Z,49.54
2019-04-14T11:00:24.127Z,50.26
2019-04-14T11:01:24.126Z,51.18
2019-04-14T11:02:24.104Z,49.64
2019-04-14T11:03:24.086Z,49.23
2019-04-14T11:04:24.098Z,49.15
2019-04-14T11:05:24.076Z,49.69
2019-04-14T11:06:24.131Z,49.27
2019-04-14T11:07:24.036Z,49.89
2019-04-14T11:08:24.029Z,50.71
2019-04-14T11:09:24.025Z,50.51
2019-04-14T11:10:24.017Z,49.79
2019-04-14T11:11:24.005Z,50.18
2019-04-14T11:12:23.999Z,50.15
2019-04-14T11:13:23.975Z,49.82
2019-04-14T11:14:23.956Z,50.21
2019-04-14T11:15:23.975Z,47.55
2019-04-14T11:16:23.968Z,47.75
2019-04-14T11:17:23.928Z,47.55
2019-04-14T11:18:23.916Z,48.26
2019-04-14T11:19:23.930Z,48.67
2019-04-14T11:20:23.905Z,49.08
2019-04-14T11:21:23.898Z,48.36
2019-04-14T11:22:23.909Z,47.83
2019-04-14T11:23:23.865Z,48.55
2019-04-14T11:24:24.161Z,47.11
2019-04-14T11:25:23.850Z,46.60
2019-04-14T11:26:23.855Z,47.63
2019-04-14T11:27:23.855Z,47.42
2019-04-14T11:28:23.819Z,47.60
2019-04-14T11:29:23.795Z,46.68
2019-04-14T11:30:23.807Z,46.70
2019-04-14T11:31:23.785Z,47.26
2019-04-14T11:32:23.861Z,48.08
2019-04-14T11:33:23.777Z,48.41
2019-04-14T11:34:23.749Z,49.41
2019-04-14T11:35:23.736Z,49.21
2019-04-14T11:36:23.735Z,49.59
2019-04-14T11:37:23.727Z,48.85
2019-04-14T11:38:23.724Z,48.22
2019-04-14T11:39:23.713Z,47.45
2019-04-14T11:40:23.684Z,46.03
2019-04-14T11:41:23.697Z,46.11
2019-04-14T11:42:23.663Z,46.72
2019-04-14T11:43:23.672Z,45.67
2019-04-14T11:44:23.635Z,45.47
2019-04-14T11:45:23.624Z,45.37
2019-04-14T11:46:23.617Z,44.55
2019-04-14T11:47:23.603Z,44.76
2019-04-14T11:48:23.634Z,44.88
2019-04-14T11:49:23.585Z,45.49
2019-04-14T11:50:23.576Z,44.98
2019-04-14T11:51:23.567Z,45.80
2019-04-14T11:52:23.543Z,45.82
2019-04-14T11:53:23.553Z,44.51
2019-04-14T11:54:23.533Z,44.94
2019-04-14T11:55:23.543Z,47.22
2019-04-14T11:56:23.517Z,46.99
2019-04-14T11:57:23.493Z,46.48
2019-04-14T11:58:23.483Z,46.37
2019-04-14T11:59:23.493Z,46.25
2019-04-14T12:00:23.465Z,44.00
2019-04-14T12:01:23.472Z,44.29
2019-04-14T12:02:23.462Z,43.88
2019-04-14T12:03:23.433Z,43.90
2019-04-14T12:04:23.413Z,43.98
2019-04-14T12:05:23.403Z,44.90
2019-04-14T12:06:23.403Z,43.65
2019-04-14T12:07:23.382Z,43.44
2019-04-14T12:08:23.382Z,43.85
2019-04-14T12:09:23.363Z,44.04
2019-04-14T12:10:23.352Z,43.82
2019-04-14T12:11:23.382Z,42.18
2019-04-14T12:12:23.364Z,42.79
2019-04-14T12:13:23.323Z,43.84
2019-04-14T12:14:23.302Z,43.91
2019-04-14T12:15:23.306Z,43.41
2019-04-14T12:16:23.302Z,43.30
2019-04-14T12:17:23.290Z,44.24
2019-04-14T12:18:23.262Z,44.47
2019-04-14T12:19:23.264Z,45.10
2019-04-14T12:20:23.252Z,44.59
2019-04-14T12:21:23.232Z,45.41
2019-04-14T12:22:23.234Z,45.64
2019-04-14T12:23:23.207Z,45.64
2019-04-14T12:24:23.204Z,45.15
2019-04-14T12:25:23.225Z,46.09
2019-04-14T12:26:23.226Z,46.19
2019-04-14T12:27:23.161Z,46.39
2019-04-14T12:28:24.043Z,45.97
2019-04-14T12:29:23.622Z,45.43
2019-04-14T12:30:24.390Z,45.72
2019-04-14T12:31:24.175Z,45.72
2019-04-14T12:32:23.112Z,44.59
2019-04-14T12:33:23.104Z,45.00
2019-04-14T12:34:23.081Z,45.20
2019-04-14T12:35:23.071Z,45.20
2019-04-14T12:36:23.070Z,45.51
2019-04-14T12:37:23.082Z,45.59
2019-04-14T12:38:23.051Z,44.70
2019-04-14T12:39:23.051Z,45.51
2019-04-14T12:40:23.030Z,45.82
2019-04-14T12:41:23.886Z,45.84
2019-04-14T12:42:23.001Z,45.74
2019-04-14T12:43:23.002Z,45.76
2019-04-14T12:44:22.994Z,46.81
2019-04-14T12:45:22.960Z,47.09
2019-04-14T12:46:22.961Z,47.30
2019-04-14T12:47:22.941Z,46.58
2019-04-14T12:48:22.972Z,46.04
2019-04-14T12:49:22.931Z,44.92
2019-04-14T12:50:22.914Z,44.92
2019-04-14T12:51:22.904Z,45.12
2019-04-14T12:52:22.880Z,45.20
2019-04-14T12:53:22.895Z,46.00
2019-04-14T12:54:22.870Z,45.88
2019-04-14T12:55:22.860Z,45.47
2019-04-14T12:56:22.841Z,45.98
2019-04-14T12:57:22.841Z,45.55
2019-04-14T12:58:22.880Z,44.63
2019-04-14T12:59:23.389Z,45.35
2019-04-14T13:00:22.810Z,45.12
2019-04-14T13:01:22.870Z,44.71
2019-04-14T13:02:22.800Z,44.53
2019-04-14T13:03:22.764Z,44.84
2019-04-14T13:04:22.889Z,44.65
2019-04-14T13:05:22.740Z,45.39
2019-04-14T13:06:22.740Z,44.78
2019-04-14T13:07:22.747Z,45.08